sensor_id;sensor_type;location;lat;lon;timestamp;pressure;altitude;pressure_sealevel;temperature;humidity
34961;BME280;30789;52.030;7.110;2023-09-19T00:00:18;99919.72;;;15.76;83.41
34961;BME280;30789;52.030;7.110;2023-09-19T00:02:46;99930.06;;;15.76;83.51
34961;BME280;30789;52.030;7.110;2023-09-19T00:05:13;99925.03;;;15.71;83.37
34961;BME280;30789;52.030;7.110;2023-09-19T00:07:40;99932.66;;;15.67;84.23
34961;BME280;30789;52.030;7.110;2023-09-19T00:10:07;99936.50;;;15.73;83.38
34961;BME280;30789;52.030;7.110;2023-09-19T00:12:34;99942.72;;;15.77;82.83
34961;BME280;30789;52.030;7.110;2023-09-19T00:15:01;99954.72;;;15.74;82.72
34961;BME280;30789;52.030;7.110;2023-09-19T00:17:34;99945.16;;;15.75;82.88
34961;BME280;30789;52.030;7.110;2023-09-19T00:20:02;99949.09;;;15.77;82.20
34961;BME280;30789;52.030;7.110;2023-09-19T00:22:32;99945.50;;;15.77;82.42
34961;BME280;30789;52.030;7.110;2023-09-19T00:25:00;99944.84;;;15.73;82.36
34961;BME280;30789;52.030;7.110;2023-09-19T00:27:28;99953.06;;;15.76;82.22
34961;BME280;30789;52.030;7.110;2023-09-19T00:29:54;99963.28;;;15.79;82.13
34961;BME280;30789;52.030;7.110;2023-09-19T00:32:21;99956.97;;;15.79;81.95
34961;BME280;30789;52.030;7.110;2023-09-19T00:34:49;99962.47;;;15.66;82.97
34961;BME280;30789;52.030;7.110;2023-09-19T00:37:15;99960.94;;;15.78;81.81
34961;BME280;30789;52.030;7.110;2023-09-19T00:39:43;99962.63;;;15.75;81.95
34961;BME280;30789;52.030;7.110;2023-09-19T00:42:17;99964.59;;;15.75;81.71
34961;BME280;30789;52.030;7.110;2023-09-19T00:44:46;99967.16;;;15.69;81.94
34961;BME280;30789;52.030;7.110;2023-09-19T00:47:12;99960.44;;;15.67;81.82
34961;BME280;30789;52.030;7.110;2023-09-19T00:49:42;99968.38;;;15.52;82.84
34961;BME280;30789;52.030;7.110;2023-09-19T00:52:11;99970.78;;;15.50;82.97
34961;BME280;30789;52.030;7.110;2023-09-19T00:54:41;99976.63;;;15.56;81.82
34961;BME280;30789;52.030;7.110;2023-09-19T00:57:08;99985.91;;;15.49;82.81
34961;BME280;30789;52.030;7.110;2023-09-19T00:59:35;99978.09;;;15.60;82.59
34961;BME280;30789;52.030;7.110;2023-09-19T01:02:02;99983.72;;;15.57;82.44
34961;BME280;30789;52.030;7.110;2023-09-19T01:04:29;99989.72;;;15.55;82.79
34961;BME280;30789;52.030;7.110;2023-09-19T01:06:55;99994.91;;;15.53;82.43
34961;BME280;30789;52.030;7.110;2023-09-19T01:09:24;99991.91;;;15.48;82.80
34961;BME280;30789;52.030;7.110;2023-09-19T01:11:53;99990.75;;;15.61;81.96
34961;BME280;30789;52.030;7.110;2023-09-19T01:14:31;100000.03;;;15.55;81.69
34961;BME280;30789;52.030;7.110;2023-09-19T01:17:03;100003.16;;;15.57;81.86
34961;BME280;30789;52.030;7.110;2023-09-19T01:19:53;100003.94;;;15.41;82.98
34961;BME280;30789;52.030;7.110;2023-09-19T01:22:37;100003.19;;;15.41;82.05
34961;BME280;30789;52.030;7.110;2023-09-19T01:28:30;100013.25;;;15.51;82.37
34961;BME280;30789;52.030;7.110;2023-09-19T01:31:04;100003.50;;;15.43;82.39
34961;BME280;30789;52.030;7.110;2023-09-19T01:33:59;100015.84;;;15.42;82.58
34961;BME280;30789;52.030;7.110;2023-09-19T01:36:27;100014.34;;;15.37;82.44
34961;BME280;30789;52.030;7.110;2023-09-19T01:38:54;100019.50;;;15.38;82.45
34961;BME280;30789;52.030;7.110;2023-09-19T01:41:44;100013.72;;;15.29;82.64
34961;BME280;30789;52.030;7.110;2023-09-19T01:44:18;100022.66;;;15.37;81.82
34961;BME280;30789;52.030;7.110;2023-09-19T01:46:49;100015.63;;;15.32;82.20
34961;BME280;30789;52.030;7.110;2023-09-19T01:49:25;100028.38;;;15.30;82.38
34961;BME280;30789;52.030;7.110;2023-09-19T01:52:00;100030.03;;;15.27;83.04
34961;BME280;30789;52.030;7.110;2023-09-19T01:54:32;100032.00;;;15.27;83.41
34961;BME280;30789;52.030;7.110;2023-09-19T01:57:06;100027.00;;;15.22;83.35
34961;BME280;30789;52.030;7.110;2023-09-19T01:59:38;100033.31;;;15.22;82.99
34961;BME280;30789;52.030;7.110;2023-09-19T02:02:12;100028.97;;;15.21;83.13
34961;BME280;30789;52.030;7.110;2023-09-19T02:04:39;100031.31;;;15.23;82.98
34961;BME280;30789;52.030;7.110;2023-09-19T02:07:06;100027.63;;;15.10;83.30
34961;BME280;30789;52.030;7.110;2023-09-19T02:09:33;100025.66;;;15.10;83.98
34961;BME280;30789;52.030;7.110;2023-09-19T02:12:00;100035.91;;;15.13;83.52
34961;BME280;30789;52.030;7.110;2023-09-19T02:14:27;100033.19;;;15.10;83.58
34961;BME280;30789;52.030;7.110;2023-09-19T02:16:54;100027.94;;;15.15;83.18
34961;BME280;30789;52.030;7.110;2023-09-19T02:19:23;100037.63;;;15.07;83.35
34961;BME280;30789;52.030;7.110;2023-09-19T02:21:49;100031.63;;;15.09;82.87
34961;BME280;30789;52.030;7.110;2023-09-19T02:24:16;100040.13;;;15.02;82.89
34961;BME280;30789;52.030;7.110;2023-09-19T02:26:42;100044.97;;;14.98;83.35
34961;BME280;30789;52.030;7.110;2023-09-19T02:29:09;100065.25;;;14.95;83.14
34961;BME280;30789;52.030;7.110;2023-09-19T02:31:38;100049.81;;;14.94;82.94
34961;BME280;30789;52.030;7.110;2023-09-19T02:34:04;100054.19;;;15.11;82.51
34961;BME280;30789;52.030;7.110;2023-09-19T02:36:35;100048.69;;;14.91;82.89
34961;BME280;30789;52.030;7.110;2023-09-19T02:39:02;100062.19;;;14.89;83.10
34961;BME280;30789;52.030;7.110;2023-09-19T02:41:31;100053.38;;;14.94;82.50
34961;BME280;30789;52.030;7.110;2023-09-19T02:43:58;100062.44;;;14.79;83.56
34961;BME280;30789;52.030;7.110;2023-09-19T02:46:25;100060.84;;;14.78;83.43
34961;BME280;30789;52.030;7.110;2023-09-19T02:48:51;100059.91;;;14.84;83.00
34961;BME280;30789;52.030;7.110;2023-09-19T02:51:18;100059.00;;;14.71;83.56
34961;BME280;30789;52.030;7.110;2023-09-19T02:53:47;100059.94;;;14.65;83.71
34961;BME280;30789;52.030;7.110;2023-09-19T02:56:14;100066.13;;;14.72;82.22
34961;BME280;30789;52.030;7.110;2023-09-19T02:58:41;100069.69;;;14.73;82.04
34961;BME280;30789;52.030;7.110;2023-09-19T03:01:08;100062.00;;;14.61;82.62
34961;BME280;30789;52.030;7.110;2023-09-19T03:03:36;100070.19;;;14.68;82.35
34961;BME280;30789;52.030;7.110;2023-09-19T03:06:05;100058.66;;;14.69;82.59
34961;BME280;30789;52.030;7.110;2023-09-19T03:08:34;100063.50;;;14.65;81.93
34961;BME280;30789;52.030;7.110;2023-09-19T03:11:06;100069.81;;;14.66;82.30
34961;BME280;30789;52.030;7.110;2023-09-19T03:13:36;100082.13;;;14.65;82.04
34961;BME280;30789;52.030;7.110;2023-09-19T03:16:05;100075.94;;;14.57;82.75
34961;BME280;30789;52.030;7.110;2023-09-19T03:18:31;100088.16;;;14.60;82.11
34961;BME280;30789;52.030;7.110;2023-09-19T03:20:58;100077.13;;;14.56;82.51
34961;BME280;30789;52.030;7.110;2023-09-19T03:23:26;100077.50;;;14.58;81.95
34961;BME280;30789;52.030;7.110;2023-09-19T03:25:53;100078.72;;;14.57;81.88
34961;BME280;30789;52.030;7.110;2023-09-19T03:28:21;100074.94;;;14.48;82.15
34961;BME280;30789;52.030;7.110;2023-09-19T03:30:58;100078.28;;;14.39;81.63
34961;BME280;30789;52.030;7.110;2023-09-19T03:33:25;100077.47;;;14.39;82.06
34961;BME280;30789;52.030;7.110;2023-09-19T03:35:52;100087.78;;;14.38;81.34
34961;BME280;30789;52.030;7.110;2023-09-19T03:38:19;100096.53;;;14.37;81.69
34961;BME280;30789;52.030;7.110;2023-09-19T03:40:46;100089.47;;;14.32;80.95
34961;BME280;30789;52.030;7.110;2023-09-19T03:43:14;100092.63;;;14.34;80.85
34961;BME280;30789;52.030;7.110;2023-09-19T03:45:41;100080.91;;;14.23;81.41
34961;BME280;30789;52.030;7.110;2023-09-19T03:48:08;100078.38;;;14.32;80.95
34961;BME280;30789;52.030;7.110;2023-09-19T03:50:35;100080.97;;;14.20;81.16
34961;BME280;30789;52.030;7.110;2023-09-19T03:53:02;100082.53;;;14.21;79.91
34961;BME280;30789;52.030;7.110;2023-09-19T03:55:28;100079.78;;;14.21;80.36
34961;BME280;30789;52.030;7.110;2023-09-19T03:57:55;100086.59;;;14.16;80.32
34961;BME280;30789;52.030;7.110;2023-09-19T04:00:22;100075.69;;;14.06;80.77
34961;BME280;30789;52.030;7.110;2023-09-19T04:02:53;100076.41;;;14.10;80.40
34961;BME280;30789;52.030;7.110;2023-09-19T04:05:21;100081.22;;;14.06;79.93
34961;BME280;30789;52.030;7.110;2023-09-19T04:07:48;100077.72;;;14.02;79.25
34961;BME280;30789;52.030;7.110;2023-09-19T04:10:15;100076.22;;;13.97;80.22
34961;BME280;30789;52.030;7.110;2023-09-19T04:12:50;100077.84;;;13.95;79.82
34961;BME280;30789;52.030;7.110;2023-09-19T04:15:17;100082.66;;;13.91;80.09
34961;BME280;30789;52.030;7.110;2023-09-19T04:17:44;100091.81;;;13.88;80.76
34961;BME280;30789;52.030;7.110;2023-09-19T04:20:12;100094.09;;;13.93;80.20
34961;BME280;30789;52.030;7.110;2023-09-19T04:22:39;100091.09;;;13.84;80.37
34961;BME280;30789;52.030;7.110;2023-09-19T04:25:06;100097.72;;;13.90;80.11
34961;BME280;30789;52.030;7.110;2023-09-19T04:27:33;100093.81;;;13.87;79.61
34961;BME280;30789;52.030;7.110;2023-09-19T04:30:00;100102.59;;;13.82;80.00
34961;BME280;30789;52.030;7.110;2023-09-19T04:32:34;100097.16;;;13.75;80.21
34961;BME280;30789;52.030;7.110;2023-09-19T04:35:01;100087.72;;;13.72;80.09
34961;BME280;30789;52.030;7.110;2023-09-19T04:37:32;100080.63;;;13.71;80.14
34961;BME280;30789;52.030;7.110;2023-09-19T04:39:59;100074.28;;;13.71;80.17
34961;BME280;30789;52.030;7.110;2023-09-19T04:42:25;100086.63;;;13.66;80.17
34961;BME280;30789;52.030;7.110;2023-09-19T04:44:52;100095.03;;;13.59;80.47
34961;BME280;30789;52.030;7.110;2023-09-19T04:47:19;100109.59;;;13.63;80.19
34961;BME280;30789;52.030;7.110;2023-09-19T04:49:46;100108.50;;;13.57;79.55
34961;BME280;30789;52.030;7.110;2023-09-19T04:52:13;100109.22;;;13.61;79.74
34961;BME280;30789;52.030;7.110;2023-09-19T04:54:42;100117.63;;;13.58;79.33
34961;BME280;30789;52.030;7.110;2023-09-19T04:57:08;100122.78;;;13.56;78.59
34961;BME280;30789;52.030;7.110;2023-09-19T04:59:34;100129.53;;;13.55;78.94
34961;BME280;30789;52.030;7.110;2023-09-19T05:02:04;100140.47;;;13.62;78.28
34961;BME280;30789;52.030;7.110;2023-09-19T05:04:31;100150.09;;;13.54;78.92
34961;BME280;30789;52.030;7.110;2023-09-19T05:06:57;100155.84;;;13.66;77.00
34961;BME280;30789;52.030;7.110;2023-09-19T05:09:25;100157.22;;;13.55;77.80
34961;BME280;30789;52.030;7.110;2023-09-19T05:11:53;100167.78;;;13.60;77.30
34961;BME280;30789;52.030;7.110;2023-09-19T05:14:19;100162.41;;;13.49;78.33
34961;BME280;30789;52.030;7.110;2023-09-19T05:16:47;100158.09;;;13.48;77.36
34961;BME280;30789;52.030;7.110;2023-09-19T05:19:14;100162.88;;;13.44;77.98
34961;BME280;30789;52.030;7.110;2023-09-19T05:21:40;100164.03;;;13.47;77.74
34961;BME280;30789;52.030;7.110;2023-09-19T05:24:07;100157.22;;;13.55;76.67
34961;BME280;30789;52.030;7.110;2023-09-19T05:26:34;100167.88;;;13.56;77.11
34961;BME280;30789;52.030;7.110;2023-09-19T05:29:02;100173.75;;;13.58;76.82
34961;BME280;30789;52.030;7.110;2023-09-19T05:31:30;100175.78;;;13.54;77.09
34961;BME280;30789;52.030;7.110;2023-09-19T05:33:56;100178.16;;;13.56;76.69
34961;BME280;30789;52.030;7.110;2023-09-19T05:36:23;100165.00;;;13.63;76.34
34961;BME280;30789;52.030;7.110;2023-09-19T05:38:50;100165.13;;;13.53;76.52
34961;BME280;30789;52.030;7.110;2023-09-19T05:41:18;100172.16;;;13.61;76.69
34961;BME280;30789;52.030;7.110;2023-09-19T05:43:50;100161.81;;;13.65;76.18
34961;BME280;30789;52.030;7.110;2023-09-19T05:46:18;100163.78;;;13.64;76.26
34961;BME280;30789;52.030;7.110;2023-09-19T05:48:45;100168.91;;;13.66;75.95
34961;BME280;30789;52.030;7.110;2023-09-19T05:51:13;100166.88;;;13.70;75.98
34961;BME280;30789;52.030;7.110;2023-09-19T05:53:39;100163.69;;;13.71;75.99
34961;BME280;30789;52.030;7.110;2023-09-19T05:56:08;100161.19;;;13.81;75.56
34961;BME280;30789;52.030;7.110;2023-09-19T05:58:36;100166.13;;;13.93;75.80
34961;BME280;30789;52.030;7.110;2023-09-19T06:01:03;100167.44;;;13.85;76.44
34961;BME280;30789;52.030;7.110;2023-09-19T06:03:31;100174.44;;;13.93;76.33
34961;BME280;30789;52.030;7.110;2023-09-19T06:05:58;100176.25;;;14.03;75.96
34961;BME280;30789;52.030;7.110;2023-09-19T06:08:24;100175.56;;;13.95;76.13
34961;BME280;30789;52.030;7.110;2023-09-19T06:10:52;100176.00;;;13.94;76.34
34961;BME280;30789;52.030;7.110;2023-09-19T06:13:18;100169.56;;;14.00;76.27
34961;BME280;30789;52.030;7.110;2023-09-19T06:15:45;100167.03;;;14.09;75.73
34961;BME280;30789;52.030;7.110;2023-09-19T06:18:12;100172.16;;;14.11;76.16
34961;BME280;30789;52.030;7.110;2023-09-19T06:20:46;100176.03;;;14.17;75.43
34961;BME280;30789;52.030;7.110;2023-09-19T06:23:14;100178.09;;;14.13;75.43
34961;BME280;30789;52.030;7.110;2023-09-19T06:25:41;100180.66;;;14.27;75.88
34961;BME280;30789;52.030;7.110;2023-09-19T06:28:08;100170.44;;;14.20;76.21
34961;BME280;30789;52.030;7.110;2023-09-19T06:30:37;100172.00;;;14.21;76.26
34961;BME280;30789;52.030;7.110;2023-09-19T06:33:06;100171.84;;;14.32;75.77
34961;BME280;30789;52.030;7.110;2023-09-19T06:35:33;100169.91;;;14.29;75.66
34961;BME280;30789;52.030;7.110;2023-09-19T06:38:04;100164.03;;;14.27;76.22
34961;BME280;30789;52.030;7.110;2023-09-19T06:40:31;100177.69;;;14.37;75.61
34961;BME280;30789;52.030;7.110;2023-09-19T06:42:58;100180.47;;;14.37;75.57
34961;BME280;30789;52.030;7.110;2023-09-19T06:45:27;100186.31;;;14.43;75.96
34961;BME280;30789;52.030;7.110;2023-09-19T06:47:55;100196.22;;;14.44;75.33
34961;BME280;30789;52.030;7.110;2023-09-19T06:50:23;100199.63;;;14.51;75.53
34961;BME280;30789;52.030;7.110;2023-09-19T06:52:51;100194.28;;;14.41;76.12
34961;BME280;30789;52.030;7.110;2023-09-19T06:55:21;100193.50;;;14.40;76.49
34961;BME280;30789;52.030;7.110;2023-09-19T06:57:50;100204.44;;;14.47;75.81
34961;BME280;30789;52.030;7.110;2023-09-19T07:00:17;100203.53;;;14.54;75.56
34961;BME280;30789;52.030;7.110;2023-09-19T07:02:55;100207.88;;;14.55;75.52
34961;BME280;30789;52.030;7.110;2023-09-19T07:05:21;100213.38;;;14.58;75.91
34961;BME280;30789;52.030;7.110;2023-09-19T07:07:48;100202.47;;;14.71;75.51
34961;BME280;30789;52.030;7.110;2023-09-19T07:10:16;100224.88;;;14.80;74.92
34961;BME280;30789;52.030;7.110;2023-09-19T07:12:44;100214.63;;;14.77;75.60
34961;BME280;30789;52.030;7.110;2023-09-19T07:15:11;100206.06;;;14.68;76.04
34961;BME280;30789;52.030;7.110;2023-09-19T07:17:37;100217.94;;;14.91;75.09
34961;BME280;30789;52.030;7.110;2023-09-19T07:20:07;100220.50;;;15.02;74.64
34961;BME280;30789;52.030;7.110;2023-09-19T07:22:35;100213.69;;;15.06;74.95
34961;BME280;30789;52.030;7.110;2023-09-19T07:25:05;100209.41;;;15.02;75.29
34961;BME280;30789;52.030;7.110;2023-09-19T07:27:31;100221.06;;;15.13;74.60
34961;BME280;30789;52.030;7.110;2023-09-19T07:29:59;100216.31;;;15.13;74.86
34961;BME280;30789;52.030;7.110;2023-09-19T07:32:26;100212.81;;;15.09;75.11
34961;BME280;30789;52.030;7.110;2023-09-19T07:34:52;100204.91;;;15.27;74.30
34961;BME280;30789;52.030;7.110;2023-09-19T07:37:20;100211.31;;;15.24;75.01
34961;BME280;30789;52.030;7.110;2023-09-19T07:39:48;100211.16;;;15.31;74.63
34961;BME280;30789;52.030;7.110;2023-09-19T07:42:16;100216.66;;;15.35;74.42
34961;BME280;30789;52.030;7.110;2023-09-19T07:44:43;100226.63;;;15.32;75.36
34961;BME280;30789;52.030;7.110;2023-09-19T07:47:13;100229.47;;;15.29;75.05
34961;BME280;30789;52.030;7.110;2023-09-19T07:49:40;100230.28;;;15.29;75.82
34961;BME280;30789;52.030;7.110;2023-09-19T07:52:07;100213.84;;;15.38;75.46
34961;BME280;30789;52.030;7.110;2023-09-19T07:54:34;100225.59;;;15.46;74.87
34961;BME280;30789;52.030;7.110;2023-09-19T07:57:01;100226.72;;;15.49;75.64
34961;BME280;30789;52.030;7.110;2023-09-19T07:59:30;100227.91;;;15.67;73.49
34961;BME280;30789;52.030;7.110;2023-09-19T08:01:56;100222.03;;;15.46;74.72
34961;BME280;30789;52.030;7.110;2023-09-19T08:04:24;100238.13;;;15.54;74.73
34961;BME280;30789;52.030;7.110;2023-09-19T08:06:52;100218.53;;;15.61;73.43
34961;BME280;30789;52.030;7.110;2023-09-19T08:09:19;100226.84;;;15.61;74.14
34961;BME280;30789;52.030;7.110;2023-09-19T08:11:46;100243.66;;;15.74;73.72
34961;BME280;30789;52.030;7.110;2023-09-19T08:14:13;100236.72;;;15.82;74.26
34961;BME280;30789;52.030;7.110;2023-09-19T08:16:40;100248.13;;;15.87;72.99
34961;BME280;30789;52.030;7.110;2023-09-19T08:19:08;100244.63;;;15.83;72.60
34961;BME280;30789;52.030;7.110;2023-09-19T08:21:36;100259.59;;;15.89;74.56
34961;BME280;30789;52.030;7.110;2023-09-19T08:24:03;100247.25;;;15.90;73.23
34961;BME280;30789;52.030;7.110;2023-09-19T08:26:31;100244.97;;;15.85;73.92
34961;BME280;30789;52.030;7.110;2023-09-19T08:28:57;100244.34;;;15.97;73.81
34961;BME280;30789;52.030;7.110;2023-09-19T08:31:30;100253.72;;;16.19;72.68
34961;BME280;30789;52.030;7.110;2023-09-19T08:33:56;100257.38;;;16.16;72.43
34961;BME280;30789;52.030;7.110;2023-09-19T08:36:25;100243.66;;;16.09;72.83
34961;BME280;30789;52.030;7.110;2023-09-19T08:38:53;100249.31;;;16.22;73.21
34961;BME280;30789;52.030;7.110;2023-09-19T08:41:19;100256.19;;;16.33;72.67
34961;BME280;30789;52.030;7.110;2023-09-19T08:43:46;100253.91;;;16.12;72.95
34961;BME280;30789;52.030;7.110;2023-09-19T08:46:15;100262.25;;;16.12;72.12
34961;BME280;30789;52.030;7.110;2023-09-19T08:48:45;100263.22;;;16.22;72.99
34961;BME280;30789;52.030;7.110;2023-09-19T08:51:18;100268.44;;;16.36;72.24
34961;BME280;30789;52.030;7.110;2023-09-19T08:54:03;100248.44;;;16.41;70.90
34961;BME280;30789;52.030;7.110;2023-09-19T08:56:35;100251.75;;;16.36;72.51
34961;BME280;30789;52.030;7.110;2023-09-19T08:59:05;100259.13;;;16.42;72.06
34961;BME280;30789;52.030;7.110;2023-09-19T09:01:33;100265.94;;;16.57;70.49
34961;BME280;30789;52.030;7.110;2023-09-19T09:04:01;100261.41;;;16.79;70.70
34961;BME280;30789;52.030;7.110;2023-09-19T09:06:31;100261.56;;;16.88;69.38
34961;BME280;30789;52.030;7.110;2023-09-19T09:09:00;100265.53;;;17.03;70.07
34961;BME280;30789;52.030;7.110;2023-09-19T09:11:28;100264.78;;;17.32;69.75
34961;BME280;30789;52.030;7.110;2023-09-19T09:13:55;100256.16;;;16.97;70.16
34961;BME280;30789;52.030;7.110;2023-09-19T09:16:23;100258.78;;;17.04;70.32
34961;BME280;30789;52.030;7.110;2023-09-19T09:18:51;100250.66;;;17.10;69.44
34961;BME280;30789;52.030;7.110;2023-09-19T09:21:21;100244.88;;;17.17;69.05
34961;BME280;30789;52.030;7.110;2023-09-19T09:23:48;100241.34;;;17.45;67.62
34961;BME280;30789;52.030;7.110;2023-09-19T09:26:40;100240.28;;;17.68;67.57
34961;BME280;30789;52.030;7.110;2023-09-19T09:29:11;100245.53;;;17.66;68.95
34961;BME280;30789;52.030;7.110;2023-09-19T09:31:38;100246.53;;;17.72;67.43
34961;BME280;30789;52.030;7.110;2023-09-19T09:34:07;100252.94;;;17.44;68.84
34961;BME280;30789;52.030;7.110;2023-09-19T09:36:34;100244.94;;;17.46;68.48
34961;BME280;30789;52.030;7.110;2023-09-19T09:39:04;100250.94;;;17.28;69.21
34961;BME280;30789;52.030;7.110;2023-09-19T09:41:48;100243.88;;;17.40;69.38
34961;BME280;30789;52.030;7.110;2023-09-19T09:44:16;100240.41;;;17.77;68.20
34961;BME280;30789;52.030;7.110;2023-09-19T09:46:44;100241.31;;;17.99;66.68
34961;BME280;30789;52.030;7.110;2023-09-19T09:49:40;100236.16;;;17.72;66.02
34961;BME280;30789;52.030;7.110;2023-09-19T09:52:19;100235.28;;;17.75;65.89
34961;BME280;30789;52.030;7.110;2023-09-19T09:54:58;100245.22;;;17.89;66.64
34961;BME280;30789;52.030;7.110;2023-09-19T09:57:27;100248.47;;;18.12;66.06
34961;BME280;30789;52.030;7.110;2023-09-19T09:59:56;100235.19;;;18.41;64.64
34961;BME280;30789;52.030;7.110;2023-09-19T10:02:26;100244.69;;;18.31;64.26
34961;BME280;30789;52.030;7.110;2023-09-19T10:04:58;100225.47;;;18.46;64.11
34961;BME280;30789;52.030;7.110;2023-09-19T10:07:35;100233.81;;;18.71;63.82
34961;BME280;30789;52.030;7.110;2023-09-19T10:10:04;100226.44;;;19.11;62.95
34961;BME280;30789;52.030;7.110;2023-09-19T10:12:44;100233.44;;;19.28;61.44
34961;BME280;30789;52.030;7.110;2023-09-19T10:15:16;100224.53;;;19.73;60.85
34961;BME280;30789;52.030;7.110;2023-09-19T10:17:46;100217.34;;;19.63;59.87
34961;BME280;30789;52.030;7.110;2023-09-19T10:20:14;100216.38;;;19.57;58.20
34961;BME280;30789;52.030;7.110;2023-09-19T10:23:03;100230.25;;;20.21;58.11
34961;BME280;30789;52.030;7.110;2023-09-19T10:25:36;100225.16;;;20.38;57.35
34961;BME280;30789;52.030;7.110;2023-09-19T10:28:08;100224.75;;;20.76;57.14
34961;BME280;30789;52.030;7.110;2023-09-19T10:30:41;100224.13;;;21.71;53.18
34961;BME280;30789;52.030;7.110;2023-09-19T10:33:13;100217.91;;;21.67;51.81
34961;BME280;30789;52.030;7.110;2023-09-19T10:35:42;100228.75;;;22.01;51.52
34961;BME280;30789;52.030;7.110;2023-09-19T10:38:10;100228.09;;;21.19;53.92
34961;BME280;30789;52.030;7.110;2023-09-19T10:40:42;100238.69;;;21.15;53.90
34961;BME280;30789;52.030;7.110;2023-09-19T10:43:18;100222.13;;;20.63;54.11
34961;BME280;30789;52.030;7.110;2023-09-19T10:46:07;100226.81;;;19.96;56.38
34961;BME280;30789;52.030;7.110;2023-09-19T10:48:38;100226.47;;;20.55;54.25
34961;BME280;30789;52.030;7.110;2023-09-19T10:51:18;100232.88;;;20.83;53.59
34961;BME280;30789;52.030;7.110;2023-09-19T10:54:16;100221.31;;;20.54;54.17
34961;BME280;30789;52.030;7.110;2023-09-19T10:56:49;100223.22;;;20.93;53.31
34961;BME280;30789;52.030;7.110;2023-09-19T10:59:25;100231.69;;;21.11;53.17
34961;BME280;30789;52.030;7.110;2023-09-19T11:02:31;100215.66;;;21.38;51.52
34961;BME280;30789;52.030;7.110;2023-09-19T11:05:27;100219.84;;;21.43;51.06
34961;BME280;30789;52.030;7.110;2023-09-19T11:08:15;100224.31;;;21.58;51.33
34961;BME280;30789;52.030;7.110;2023-09-19T11:10:48;100221.53;;;22.42;49.16
34961;BME280;30789;52.030;7.110;2023-09-19T11:13:25;100229.13;;;21.67;50.58
34961;BME280;30789;52.030;7.110;2023-09-19T11:19:19;100210.50;;;21.10;50.63
34961;BME280;30789;52.030;7.110;2023-09-19T11:22:04;100220.00;;;21.03;52.10
34961;BME280;30789;52.030;7.110;2023-09-19T11:24:35;100211.59;;;21.30;51.16
34961;BME280;30789;52.030;7.110;2023-09-19T11:27:21;100201.75;;;20.90;52.43
34961;BME280;30789;52.030;7.110;2023-09-19T11:30:25;100213.31;;;21.10;52.57
34961;BME280;30789;52.030;7.110;2023-09-19T11:33:19;100204.59;;;22.60;49.62
34961;BME280;30789;52.030;7.110;2023-09-19T11:36:01;100210.13;;;22.45;47.61
34961;BME280;30789;52.030;7.110;2023-09-19T11:39:02;100215.50;;;21.06;51.50
34961;BME280;30789;52.030;7.110;2023-09-19T11:41:48;100201.72;;;20.45;52.67
34961;BME280;30789;52.030;7.110;2023-09-19T11:44:36;100188.38;;;19.78;54.40
34961;BME280;30789;52.030;7.110;2023-09-19T11:49:55;100198.47;;;19.76;54.88
34961;BME280;30789;52.030;7.110;2023-09-19T11:52:28;100179.13;;;19.90;54.71
34961;BME280;30789;52.030;7.110;2023-09-19T11:55:04;100187.13;;;20.59;53.12
34961;BME280;30789;52.030;7.110;2023-09-19T11:57:36;100193.78;;;20.52;52.89
34961;BME280;30789;52.030;7.110;2023-09-19T12:00:05;100183.75;;;21.00;52.11
34961;BME280;30789;52.030;7.110;2023-09-19T12:02:39;100191.84;;;20.98;51.57
34961;BME280;30789;52.030;7.110;2023-09-19T12:05:08;100189.34;;;21.18;52.21
34961;BME280;30789;52.030;7.110;2023-09-19T12:07:43;100192.75;;;21.04;52.18
34961;BME280;30789;52.030;7.110;2023-09-19T12:10:13;100168.47;;;21.19;52.60
34961;BME280;30789;52.030;7.110;2023-09-19T12:12:47;100178.72;;;21.31;51.41
34961;BME280;30789;52.030;7.110;2023-09-19T12:15:26;100177.34;;;21.17;51.26
34961;BME280;30789;52.030;7.110;2023-09-19T12:18:27;100163.44;;;21.41;52.05
34961;BME280;30789;52.030;7.110;2023-09-19T12:21:01;100166.19;;;21.59;49.68
34961;BME280;30789;52.030;7.110;2023-09-19T12:23:31;100169.22;;;21.28;52.17
34961;BME280;30789;52.030;7.110;2023-09-19T12:26:12;100170.97;;;21.26;51.88
34961;BME280;30789;52.030;7.110;2023-09-19T12:28:41;100168.19;;;21.17;52.53
34961;BME280;30789;52.030;7.110;2023-09-19T12:31:12;100166.13;;;20.72;53.97
34961;BME280;30789;52.030;7.110;2023-09-19T12:33:41;100158.94;;;20.71;54.11
34961;BME280;30789;52.030;7.110;2023-09-19T12:36:19;100169.88;;;20.78;53.67
34961;BME280;30789;52.030;7.110;2023-09-19T12:39:01;100160.69;;;20.96;53.00
34961;BME280;30789;52.030;7.110;2023-09-19T12:41:39;100163.78;;;20.80;53.51
34961;BME280;30789;52.030;7.110;2023-09-19T12:44:25;100162.06;;;20.55;55.01
34961;BME280;30789;52.030;7.110;2023-09-19T12:47:03;100175.88;;;20.50;54.33
34961;BME280;30789;52.030;7.110;2023-09-19T12:49:34;100165.47;;;20.50;54.51
34961;BME280;30789;52.030;7.110;2023-09-19T12:52:12;100158.81;;;20.66;53.67
34961;BME280;30789;52.030;7.110;2023-09-19T12:55:02;100162.88;;;20.74;54.23
34961;BME280;30789;52.030;7.110;2023-09-19T12:57:30;100154.28;;;20.68;54.24
34961;BME280;30789;52.030;7.110;2023-09-19T13:00:02;100150.41;;;20.66;54.14
34961;BME280;30789;52.030;7.110;2023-09-19T13:02:36;100158.31;;;20.40;54.40
34961;BME280;30789;52.030;7.110;2023-09-19T13:05:03;100160.28;;;20.21;54.25
34961;BME280;30789;52.030;7.110;2023-09-19T13:07:53;100147.41;;;20.33;55.16
34961;BME280;30789;52.030;7.110;2023-09-19T13:11:01;100159.38;;;20.24;54.19
34961;BME280;30789;52.030;7.110;2023-09-19T13:13:30;100145.44;;;21.06;52.31
34961;BME280;30789;52.030;7.110;2023-09-19T13:18:52;100143.50;;;22.22;49.56
34961;BME280;30789;52.030;7.110;2023-09-19T13:21:33;100135.69;;;22.03;49.08